sensor_id;sensor_type;location;lat;lon;timestamp;P1;durP1;ratioP1;P2;durP2;ratioP2
18789;SDS011;9523;42.650;23.386;2024-02-14T00:02:25;7.80;;;5.37;;
18789;SDS011;9523;42.650;23.386;2024-02-14T00:04:52;9.10;;;5.63;;
18789;SDS011;9523;42.650;23.386;2024-02-14T00:07:21;7.67;;;4.73;;
18789;SDS011;9523;42.650;23.386;2024-02-14T00:09:48;8.53;;;6.03;;
18789;SDS011;9523;42.650;23.386;2024-02-14T00:12:15;9.13;;;6.10;;
18789;SDS011;9523;42.650;23.386;2024-02-14T00:14:42;8.27;;;5.93;;
18789;SDS011;9523;42.650;23.386;2024-02-14T00:17:09;6.67;;;5.10;;
18789;SDS011;9523;42.650;23.386;2024-02-14T00:19:37;8.47;;;6.63;;
18789;SDS011;9523;42.650;23.386;2024-02-14T00:22:04;8.43;;;5.80;;
18789;SDS011;9523;42.650;23.386;2024-02-14T00:24:33;6.03;;;4.20;;
18789;SDS011;9523;42.650;23.386;2024-02-14T00:27:01;10.70;;;6.33;;
18789;SDS011;9523;42.650;23.386;2024-02-14T00:29:28;8.10;;;5.53;;
18789;SDS011;9523;42.650;23.386;2024-02-14T00:31:55;7.90;;;5.50;;
18789;SDS011;9523;42.650;23.386;2024-02-14T00:34:22;10.00;;;5.57;;
18789;SDS011;9523;42.650;23.386;2024-02-14T00:36:49;9.23;;;6.50;;
18789;SDS011;9523;42.650;23.386;2024-02-14T00:39:16;9.17;;;5.33;;
18789;SDS011;9523;42.650;23.386;2024-02-14T00:41:45;7.57;;;5.40;;
18789;SDS011;9523;42.650;23.386;2024-02-14T00:44:13;9.97;;;6.77;;
18789;SDS011;9523;42.650;23.386;2024-02-14T00:46:42;7.53;;;5.43;;
18789;SDS011;9523;42.650;23.386;2024-02-14T00:49:09;8.60;;;6.37;;
18789;SDS011;9523;42.650;23.386;2024-02-14T00:51:38;8.00;;;5.90;;
18789;SDS011;9523;42.650;23.386;2024-02-14T00:54:05;9.37;;;6.03;;
18789;SDS011;9523;42.650;23.386;2024-02-14T00:56:33;8.70;;;6.30;;
18789;SDS011;9523;42.650;23.386;2024-02-14T00:59:02;9.13;;;6.33;;
18789;SDS011;9523;42.650;23.386;2024-02-14T01:01:28;7.47;;;5.70;;
18789;SDS011;9523;42.650;23.386;2024-02-14T01:03:55;8.07;;;5.60;;
18789;SDS011;9523;42.650;23.386;2024-02-14T01:06:22;9.63;;;6.47;;
18789;SDS011;9523;42.650;23.386;2024-02-14T01:08:50;8.70;;;6.30;;
18789;SDS011;9523;42.650;23.386;2024-02-14T01:11:17;10.67;;;6.40;;
18789;SDS011;9523;42.650;23.386;2024-02-14T01:13:44;10.53;;;6.93;;
18789;SDS011;9523;42.650;23.386;2024-02-14T01:16:12;9.73;;;6.30;;
18789;SDS011;9523;42.650;23.386;2024-02-14T01:18:39;8.83;;;6.67;;
18789;SDS011;9523;42.650;23.386;2024-02-14T01:21:06;9.00;;;6.50;;
18789;SDS011;9523;42.650;23.386;2024-02-14T01:23:33;10.70;;;6.53;;
18789;SDS011;9523;42.650;23.386;2024-02-14T01:26:01;11.43;;;7.10;;
18789;SDS011;9523;42.650;23.386;2024-02-14T01:28:28;10.50;;;6.80;;
18789;SDS011;9523;42.650;23.386;2024-02-14T01:30:55;9.53;;;6.23;;
18789;SDS011;9523;42.650;23.386;2024-02-14T01:33:23;8.43;;;6.27;;
18789;SDS011;9523;42.650;23.386;2024-02-14T01:35:50;9.03;;;6.77;;
18789;SDS011;9523;42.650;23.386;2024-02-14T01:38:17;8.60;;;6.10;;
18789;SDS011;9523;42.650;23.386;2024-02-14T01:40:44;9.77;;;6.83;;
18789;SDS011;9523;42.650;23.386;2024-02-14T01:43:12;11.00;;;6.63;;
18789;SDS011;9523;42.650;23.386;2024-02-14T01:45:39;9.10;;;6.50;;
18789;SDS011;9523;42.650;23.386;2024-02-14T01:48:06;10.87;;;6.93;;
18789;SDS011;9523;42.650;23.386;2024-02-14T01:50:36;9.77;;;6.60;;
18789;SDS011;9523;42.650;23.386;2024-02-14T01:53:05;9.80;;;6.77;;
18789;SDS011;9523;42.650;23.386;2024-02-14T01:55:33;8.90;;;6.30;;
18789;SDS011;9523;42.650;23.386;2024-02-14T01:58:01;9.87;;;6.07;;
18789;SDS011;9523;42.650;23.386;2024-02-14T02:00:29;8.33;;;6.20;;
18789;SDS011;9523;42.650;23.386;2024-02-14T02:02:57;10.07;;;6.83;;
18789;SDS011;9523;42.650;23.386;2024-02-14T02:05:25;10.13;;;5.73;;
18789;SDS011;9523;42.650;23.386;2024-02-14T02:07:53;11.80;;;7.30;;
18789;SDS011;9523;42.650;23.386;2024-02-14T02:10:20;10.20;;;7.10;;
18789;SDS011;9523;42.650;23.386;2024-02-14T02:12:50;9.43;;;6.10;;
18789;SDS011;9523;42.650;23.386;2024-02-14T02:15:17;10.10;;;7.20;;
18789;SDS011;9523;42.650;23.386;2024-02-14T02:17:44;9.27;;;6.80;;
18789;SDS011;9523;42.650;23.386;2024-02-14T02:20:17;10.77;;;7.30;;
18789;SDS011;9523;42.650;23.386;2024-02-14T02:22:46;9.53;;;6.70;;
18789;SDS011;9523;42.650;23.386;2024-02-14T02:25:13;9.77;;;6.27;;
18789;SDS011;9523;42.650;23.386;2024-02-14T02:27:40;11.53;;;7.33;;
18789;SDS011;9523;42.650;23.386;2024-02-14T02:30:08;10.17;;;7.40;;
18789;SDS011;9523;42.650;23.386;2024-02-14T02:32:35;9.27;;;6.60;;
18789;SDS011;9523;42.650;23.386;2024-02-14T02:35:03;9.83;;;7.33;;
18789;SDS011;9523;42.650;23.386;2024-02-14T02:37:31;10.87;;;7.93;;
18789;SDS011;9523;42.650;23.386;2024-02-14T02:39:59;9.67;;;6.67;;
18789;SDS011;9523;42.650;23.386;2024-02-14T02:42:26;10.67;;;7.47;;
18789;SDS011;9523;42.650;23.386;2024-02-14T02:44:54;12.70;;;7.30;;
18789;SDS011;9523;42.650;23.386;2024-02-14T02:47:21;9.37;;;6.37;;
18789;SDS011;9523;42.650;23.386;2024-02-14T02:49:48;10.00;;;6.10;;
18789;SDS011;9523;42.650;23.386;2024-02-14T02:52:15;10.80;;;7.37;;
18789;SDS011;9523;42.650;23.386;2024-02-14T02:54:42;10.23;;;7.00;;
18789;SDS011;9523;42.650;23.386;2024-02-14T02:57:13;9.57;;;6.60;;
18789;SDS011;9523;42.650;23.386;2024-02-14T02:59:41;9.70;;;6.87;;
18789;SDS011;9523;42.650;23.386;2024-02-14T03:02:09;10.73;;;7.40;;
18789;SDS011;9523;42.650;23.386;2024-02-14T03:04:37;9.33;;;5.33;;
18789;SDS011;9523;42.650;23.386;2024-02-14T03:07:04;9.50;;;5.83;;
18789;SDS011;9523;42.650;23.386;2024-02-14T03:09:33;10.73;;;7.40;;
18789;SDS011;9523;42.650;23.386;2024-02-14T03:12:01;12.07;;;8.27;;
18789;SDS011;9523;42.650;23.386;2024-02-14T03:14:30;10.60;;;7.43;;
18789;SDS011;9523;42.650;23.386;2024-02-14T03:16:58;12.20;;;7.67;;
18789;SDS011;9523;42.650;23.386;2024-02-14T03:19:27;11.27;;;7.37;;
18789;SDS011;9523;42.650;23.386;2024-02-14T03:21:55;10.13;;;6.23;;
18789;SDS011;9523;42.650;23.386;2024-02-14T03:24:22;10.90;;;7.30;;
18789;SDS011;9523;42.650;23.386;2024-02-14T03:26:50;9.33;;;6.13;;
18789;SDS011;9523;42.650;23.386;2024-02-14T03:29:18;12.30;;;7.93;;
18789;SDS011;9523;42.650;23.386;2024-02-14T03:31:47;12.93;;;7.63;;
18789;SDS011;9523;42.650;23.386;2024-02-14T03:34:14;11.93;;;7.97;;
18789;SDS011;9523;42.650;23.386;2024-02-14T03:36:42;12.30;;;8.03;;
18789;SDS011;9523;42.650;23.386;2024-02-14T03:39:09;10.70;;;7.57;;
18789;SDS011;9523;42.650;23.386;2024-02-14T03:41:36;9.70;;;6.17;;
18789;SDS011;9523;42.650;23.386;2024-02-14T03:44:04;12.20;;;8.30;;
18789;SDS011;9523;42.650;23.386;2024-02-14T03:46:32;11.27;;;6.83;;
18789;SDS011;9523;42.650;23.386;2024-02-14T03:49:03;11.50;;;7.67;;
18789;SDS011;9523;42.650;23.386;2024-02-14T03:51:30;11.10;;;7.77;;
18789;SDS011;9523;42.650;23.386;2024-02-14T03:53:57;11.90;;;8.00;;
18789;SDS011;9523;42.650;23.386;2024-02-14T03:56:24;12.10;;;8.20;;
18789;SDS011;9523;42.650;23.386;2024-02-14T03:58:51;10.10;;;7.03;;
18789;SDS011;9523;42.650;23.386;2024-02-14T04:01:18;9.77;;;7.53;;
18789;SDS011;9523;42.650;23.386;2024-02-14T04:03:46;10.63;;;7.27;;
18789;SDS011;9523;42.650;23.386;2024-02-14T04:06:15;9.13;;;6.53;;
18789;SDS011;9523;42.650;23.386;2024-02-14T04:08:43;10.93;;;7.00;;
18789;SDS011;9523;42.650;23.386;2024-02-14T04:11:10;10.70;;;7.53;;
18789;SDS011;9523;42.650;23.386;2024-02-14T04:13:38;10.37;;;6.73;;
18789;SDS011;9523;42.650;23.386;2024-02-14T04:16:06;13.43;;;8.43;;
18789;SDS011;9523;42.650;23.386;2024-02-14T04:18:33;10.33;;;7.10;;
18789;SDS011;9523;42.650;23.386;2024-02-14T04:21:00;13.03;;;7.90;;
18789;SDS011;9523;42.650;23.386;2024-02-14T04:23:30;10.47;;;7.23;;
18789;SDS011;9523;42.650;23.386;2024-02-14T04:25:57;11.10;;;7.90;;
18789;SDS011;9523;42.650;23.386;2024-02-14T04:28:24;14.40;;;8.00;;
18789;SDS011;9523;42.650;23.386;2024-02-14T04:30:51;6.63;;;3.90;;
18789;SDS011;9523;42.650;23.386;2024-02-14T04:33:20;14.63;;;8.60;;
18789;SDS011;9523;42.650;23.386;2024-02-14T04:35:50;10.67;;;7.37;;
18789;SDS011;9523;42.650;23.386;2024-02-14T04:38:18;9.33;;;7.23;;
18789;SDS011;9523;42.650;23.386;2024-02-14T04:40:46;8.63;;;6.60;;
18789;SDS011;9523;42.650;23.386;2024-02-14T04:43:13;13.00;;;8.37;;
18789;SDS011;9523;42.650;23.386;2024-02-14T04:45:41;13.93;;;9.33;;
18789;SDS011;9523;42.650;23.386;2024-02-14T04:48:08;10.33;;;6.87;;
18789;SDS011;9523;42.650;23.386;2024-02-14T04:50:35;13.77;;;7.67;;
18789;SDS011;9523;42.650;23.386;2024-02-14T04:53:03;12.33;;;7.23;;
18789;SDS011;9523;42.650;23.386;2024-02-14T04:55:30;11.77;;;7.90;;
18789;SDS011;9523;42.650;23.386;2024-02-14T04:57:59;14.43;;;9.53;;
18789;SDS011;9523;42.650;23.386;2024-02-14T05:00:26;15.23;;;9.20;;
18789;SDS011;9523;42.650;23.386;2024-02-14T05:02:54;13.90;;;9.77;;
18789;SDS011;9523;42.650;23.386;2024-02-14T05:05:22;13.93;;;8.77;;
18789;SDS011;9523;42.650;23.386;2024-02-14T05:07:49;14.03;;;8.40;;
18789;SDS011;9523;42.650;23.386;2024-02-14T05:10:16;14.10;;;9.00;;
18789;SDS011;9523;42.650;23.386;2024-02-14T05:12:43;13.77;;;8.87;;
18789;SDS011;9523;42.650;23.386;2024-02-14T05:15:12;15.63;;;8.93;;
18789;SDS011;9523;42.650;23.386;2024-02-14T05:17:41;16.87;;;9.80;;
18789;SDS011;9523;42.650;23.386;2024-02-14T05:20:09;14.40;;;9.50;;
18789;SDS011;9523;42.650;23.386;2024-02-14T05:22:36;16.63;;;10.10;;
18789;SDS011;9523;42.650;23.386;2024-02-14T05:25:04;16.77;;;10.10;;
18789;SDS011;9523;42.650;23.386;2024-02-14T05:27:33;16.40;;;10.43;;
18789;SDS011;9523;42.650;23.386;2024-02-14T05:30:00;16.97;;;11.43;;
18789;SDS011;9523;42.650;23.386;2024-02-14T05:32:32;17.63;;;11.67;;
18789;SDS011;9523;42.650;23.386;2024-02-14T05:35:02;15.07;;;10.17;;
18789;SDS011;9523;42.650;23.386;2024-02-14T05:37:31;16.20;;;10.57;;
18789;SDS011;9523;42.650;23.386;2024-02-14T05:39:58;21.60;;;11.07;;
18789;SDS011;9523;42.650;23.386;2024-02-14T05:42:25;17.50;;;10.87;;
18789;SDS011;9523;42.650;23.386;2024-02-14T05:44:52;15.67;;;11.03;;
18789;SDS011;9523;42.650;23.386;2024-02-14T05:47:19;17.97;;;11.17;;
18789;SDS011;9523;42.650;23.386;2024-02-14T05:49:48;18.20;;;11.13;;
18789;SDS011;9523;42.650;23.386;2024-02-14T05:52:15;14.87;;;9.97;;
18789;SDS011;9523;42.650;23.386;2024-02-14T05:54:43;16.43;;;10.43;;
18789;SDS011;9523;42.650;23.386;2024-02-14T05:57:10;13.83;;;9.90;;
18789;SDS011;9523;42.650;23.386;2024-02-14T05:59:37;15.97;;;12.10;;
18789;SDS011;9523;42.650;23.386;2024-02-14T06:02:05;12.90;;;8.03;;
18789;SDS011;9523;42.650;23.386;2024-02-14T06:04:33;15.23;;;10.43;;
18789;SDS011;9523;42.650;23.386;2024-02-14T06:07:02;16.10;;;9.70;;
18789;SDS011;9523;42.650;23.386;2024-02-14T06:09:31;18.27;;;10.70;;
18789;SDS011;9523;42.650;23.386;2024-02-14T06:11:58;19.70;;;10.27;;
18789;SDS011;9523;42.650;23.386;2024-02-14T06:14:25;14.23;;;10.17;;
18789;SDS011;9523;42.650;23.386;2024-02-14T06:16:54;17.90;;;11.33;;
18789;SDS011;9523;42.650;23.386;2024-02-14T06:19:21;16.10;;;10.47;;
18789;SDS011;9523;42.650;23.386;2024-02-14T06:21:49;14.33;;;9.73;;
18789;SDS011;9523;42.650;23.386;2024-02-14T06:24:17;16.10;;;10.40;;
18789;SDS011;9523;42.650;23.386;2024-02-14T06:26:45;18.67;;;11.17;;
18789;SDS011;9523;42.650;23.386;2024-02-14T06:29:12;15.50;;;10.20;;
18789;SDS011;9523;42.650;23.386;2024-02-14T06:31:39;15.20;;;9.83;;
18789;SDS011;9523;42.650;23.386;2024-02-14T06:34:06;15.47;;;9.63;;
18789;SDS011;9523;42.650;23.386;2024-02-14T06:36:33;13.03;;;9.07;;
18789;SDS011;9523;42.650;23.386;2024-02-14T06:39:00;16.73;;;10.40;;
18789;SDS011;9523;42.650;23.386;2024-02-14T06:41:29;15.77;;;9.20;;
18789;SDS011;9523;42.650;23.386;2024-02-14T06:43:56;14.17;;;8.60;;
18789;SDS011;9523;42.650;23.386;2024-02-14T06:46:23;16.30;;;8.80;;
18789;SDS011;9523;42.650;23.386;2024-02-14T06:48:50;12.50;;;8.73;;
18789;SDS011;9523;42.650;23.386;2024-02-14T06:51:17;12.80;;;7.73;;
18789;SDS011;9523;42.650;23.386;2024-02-14T06:53:45;13.30;;;9.43;;
18789;SDS011;9523;42.650;23.386;2024-02-14T06:56:12;12.03;;;7.97;;
18789;SDS011;9523;42.650;23.386;2024-02-14T06:58:41;13.93;;;7.70;;
18789;SDS011;9523;42.650;23.386;2024-02-14T07:01:08;17.73;;;9.37;;
18789;SDS011;9523;42.650;23.386;2024-02-14T07:03:38;11.10;;;8.10;;
18789;SDS011;9523;42.650;23.386;2024-02-14T07:06:06;15.80;;;9.23;;
18789;SDS011;9523;42.650;23.386;2024-02-14T07:08:33;11.53;;;8.20;;
18789;SDS011;9523;42.650;23.386;2024-02-14T07:11:00;14.73;;;8.70;;
18789;SDS011;9523;42.650;23.386;2024-02-14T07:13:27;13.20;;;8.70;;
18789;SDS011;9523;42.650;23.386;2024-02-14T07:15:55;11.43;;;7.57;;
18789;SDS011;9523;42.650;23.386;2024-02-14T07:18:22;10.67;;;7.83;;
18789;SDS011;9523;42.650;23.386;2024-02-14T07:20:49;12.77;;;5.23;;
18789;SDS011;9523;42.650;23.386;2024-02-14T07:23:18;11.80;;;7.30;;
18789;SDS011;9523;42.650;23.386;2024-02-14T07:25:45;8.80;;;7.30;;
18789;SDS011;9523;42.650;23.386;2024-02-14T07:28:12;11.03;;;7.47;;
18789;SDS011;9523;42.650;23.386;2024-02-14T07:30:40;10.57;;;7.23;;
18789;SDS011;9523;42.650;23.386;2024-02-14T07:33:08;11.27;;;7.47;;
18789;SDS011;9523;42.650;23.386;2024-02-14T07:35:36;8.90;;;6.73;;
18789;SDS011;9523;42.650;23.386;2024-02-14T07:38:03;14.93;;;8.67;;
18789;SDS011;9523;42.650;23.386;2024-02-14T07:40:30;12.67;;;7.53;;
18789;SDS011;9523;42.650;23.386;2024-02-14T07:42:58;10.13;;;7.00;;
18789;SDS011;9523;42.650;23.386;2024-02-14T07:45:25;8.73;;;6.50;;
18789;SDS011;9523;42.650;23.386;2024-02-14T07:47:52;12.13;;;7.37;;
18789;SDS011;9523;42.650;23.386;2024-02-14T07:50:21;12.20;;;7.17;;
18789;SDS011;9523;42.650;23.386;2024-02-14T07:52:48;9.73;;;6.97;;
18789;SDS011;9523;42.650;23.386;2024-02-14T07:55:15;9.63;;;6.70;;
18789;SDS011;9523;42.650;23.386;2024-02-14T07:57:42;12.70;;;7.33;;
18789;SDS011;9523;42.650;23.386;2024-02-14T08:00:09;10.07;;;7.23;;
18789;SDS011;9523;42.650;23.386;2024-02-14T08:02:39;11.70;;;7.63;;
18789;SDS011;9523;42.650;23.386;2024-02-14T08:05:06;11.43;;;7.77;;
18789;SDS011;9523;42.650;23.386;2024-02-14T08:07:35;9.83;;;8.23;;
18789;SDS011;9523;42.650;23.386;2024-02-14T08:10:02;11.33;;;7.03;;
18789;SDS011;9523;42.650;23.386;2024-02-14T08:12:30;11.47;;;7.30;;
18789;SDS011;9523;42.650;23.386;2024-02-14T08:14:57;5.87;;;5.10;;
18789;SDS011;9523;42.650;23.386;2024-02-14T08:17:29;11.17;;;7.20;;
18789;SDS011;9523;42.650;23.386;2024-02-14T08:19:56;10.97;;;7.07;;
18789;SDS011;9523;42.650;23.386;2024-02-14T08:22:23;10.43;;;6.80;;
18789;SDS011;9523;42.650;23.386;2024-02-14T08:24:53;12.70;;;8.37;;
18789;SDS011;9523;42.650;23.386;2024-02-14T08:27:21;13.57;;;7.97;;
18789;SDS011;9523;42.650;23.386;2024-02-14T08:29:48;12.67;;;7.97;;
18789;SDS011;9523;42.650;23.386;2024-02-14T08:32:15;11.73;;;7.47;;
18789;SDS011;9523;42.650;23.386;2024-02-14T08:34:42;11.03;;;7.77;;
18789;SDS011;9523;42.650;23.386;2024-02-14T08:37:09;9.03;;;6.23;;
18789;SDS011;9523;42.650;23.386;2024-02-14T08:39:36;10.90;;;7.20;;
18789;SDS011;9523;42.650;23.386;2024-02-14T08:42:05;13.87;;;7.80;;
18789;SDS011;9523;42.650;23.386;2024-02-14T08:44:33;10.20;;;6.90;;
18789;SDS011;9523;42.650;23.386;2024-02-14T08:47:00;8.30;;;5.80;;
18789;SDS011;9523;42.650;23.386;2024-02-14T08:49:27;9.90;;;6.77;;
18789;SDS011;9523;42.650;23.386;2024-02-14T08:51:54;9.07;;;6.13;;
18789;SDS011;9523;42.650;23.386;2024-02-14T08:54:21;9.20;;;6.67;;
18789;SDS011;9523;42.650;23.386;2024-02-14T08:56:48;10.27;;;6.70;;
18789;SDS011;9523;42.650;23.386;2024-02-14T08:59:19;9.57;;;6.57;;
18789;SDS011;9523;42.650;23.386;2024-02-14T09:01:46;10.33;;;7.60;;
18789;SDS011;9523;42.650;23.386;2024-02-14T09:04:13;8.87;;;6.13;;
18789;SDS011;9523;42.650;23.386;2024-02-14T09:06:41;10.77;;;7.13;;
18789;SDS011;9523;42.650;23.386;2024-02-14T09:09:08;10.87;;;7.17;;
18789;SDS011;9523;42.650;23.386;2024-02-14T09:11:36;10.83;;;6.83;;
18789;SDS011;9523;42.650;23.386;2024-02-14T09:14:04;11.33;;;6.60;;
18789;SDS011;9523;42.650;23.386;2024-02-14T09:16:33;14.13;;;7.83;;
18789;SDS011;9523;42.650;23.386;2024-02-14T09:19:00;9.67;;;6.50;;
18789;SDS011;9523;42.650;23.386;2024-02-14T09:21:28;8.83;;;6.43;;
18789;SDS011;9523;42.650;23.386;2024-02-14T09:23:55;11.97;;;8.40;;
18789;SDS011;9523;42.650;23.386;2024-02-14T09:26:23;13.20;;;8.30;;
18789;SDS011;9523;42.650;23.386;2024-02-14T09:28:50;10.37;;;7.67;;
18789;SDS011;9523;42.650;23.386;2024-02-14T09:31:17;9.17;;;6.57;;
18789;SDS011;9523;42.650;23.386;2024-02-14T09:33:46;10.50;;;7.03;;
18789;SDS011;9523;42.650;23.386;2024-02-14T09:36:14;9.83;;;7.47;;
18789;SDS011;9523;42.650;23.386;2024-02-14T09:38:41;10.27;;;6.63;;
18789;SDS011;9523;42.650;23.386;2024-02-14T09:41:11;8.33;;;5.87;;
18789;SDS011;9523;42.650;23.386;2024-02-14T09:43:43;9.17;;;6.43;;
18789;SDS011;9523;42.650;23.386;2024-02-14T09:46:12;9.63;;;6.50;;
18789;SDS011;9523;42.650;23.386;2024-02-14T09:48:40;12.57;;;7.40;;
18789;SDS011;9523;42.650;23.386;2024-02-14T09:51:11;9.73;;;6.70;;
18789;SDS011;9523;42.650;23.386;2024-02-14T09:53:39;10.30;;;7.40;;
18789;SDS011;9523;42.650;23.386;2024-02-14T09:56:06;11.70;;;7.50;;
18789;SDS011;9523;42.650;23.386;2024-02-14T09:58:36;12.87;;;7.67;;
18789;SDS011;9523;42.650;23.386;2024-02-14T10:01:04;10.47;;;7.07;;
18789;SDS011;9523;42.650;23.386;2024-02-14T10:03:34;10.97;;;7.17;;
18789;SDS011;9523;42.650;23.386;2024-02-14T10:06:01;9.93;;;7.60;;
18789;SDS011;9523;42.650;23.386;2024-02-14T10:08:30;12.07;;;7.70;;
18789;SDS011;9523;42.650;23.386;2024-02-14T10:10:58;9.43;;;6.20;;
18789;SDS011;9523;42.650;23.386;2024-02-14T10:13:26;10.73;;;7.27;;
18789;SDS011;9523;42.650;23.386;2024-02-14T10:15:55;11.50;;;7.73;;
18789;SDS011;9523;42.650;23.386;2024-02-14T10:18:22;9.80;;;6.43;;
18789;SDS011;9523;42.650;23.386;2024-02-14T10:20:55;9.33;;;6.70;;
18789;SDS011;9523;42.650;23.386;2024-02-14T10:23:22;8.10;;;6.30;;
18789;SDS011;9523;42.650;23.386;2024-02-14T10:25:52;10.77;;;7.43;;
18789;SDS011;9523;42.650;23.386;2024-02-14T10:28:21;9.13;;;5.60;;
18789;SDS011;9523;42.650;23.386;2024-02-14T10:30:48;9.17;;;7.47;;
18789;SDS011;9523;42.650;23.386;2024-02-14T10:33:16;11.73;;;7.60;;
18789;SDS011;9523;42.650;23.386;2024-02-14T10:35:44;6.27;;;3.87;;
18789;SDS011;9523;42.650;23.386;2024-02-14T10:38:11;11.63;;;6.33;;
18789;SDS011;9523;42.650;23.386;2024-02-14T10:40:38;10.23;;;6.43;;
18789;SDS011;9523;42.650;23.386;2024-02-14T10:43:09;10.87;;;6.77;;
18789;SDS011;9523;42.650;23.386;2024-02-14T10:45:36;10.80;;;7.77;;
18789;SDS011;9523;42.650;23.386;2024-02-14T10:48:05;9.33;;;6.67;;
18789;SDS011;9523;42.650;23.386;2024-02-14T10:50:33;8.70;;;6.03;;
18789;SDS011;9523;42.650;23.386;2024-02-14T10:53:03;9.50;;;6.73;;
18789;SDS011;9523;42.650;23.386;2024-02-14T10:55:31;9.80;;;6.90;;
18789;SDS011;9523;42.650;23.386;2024-02-14T10:58:00;12.10;;;7.17;;
18789;SDS011;9523;42.650;23.386;2024-02-14T11:00:30;11.30;;;6.07;;
18789;SDS011;9523;42.650;23.386;2024-02-14T11:02:58;9.97;;;6.90;;
18789;SDS011;9523;42.650;23.386;2024-02-14T11:05:27;10.67;;;6.63;;
18789;SDS011;9523;42.650;23.386;2024-02-14T11:07:54;9.93;;;6.97;;
18789;SDS011;9523;42.650;23.386;2024-02-14T11:10:22;13.27;;;8.00;;
18789;SDS011;9523;42.650;23.386;2024-02-14T11:12:50;12.00;;;6.80;;
18789;SDS011;9523;42.650;23.386;2024-02-14T11:15:17;7.53;;;5.50;;
18789;SDS011;9523;42.650;23.386;2024-02-14T11:17:48;11.03;;;6.93;;
18789;SDS011;9523;42.650;23.386;2024-02-14T11:20:17;9.13;;;6.40;;
18789;SDS011;9523;42.650;23.386;2024-02-14T11:22:54;10.03;;;6.23;;
18789;SDS011;9523;42.650;23.386;2024-02-14T11:25:23;10.07;;;6.53;;
18789;SDS011;9523;42.650;23.386;2024-02-14T11:27:54;11.77;;;7.10;;
18789;SDS011;9523;42.650;23.386;2024-02-14T11:30:31;9.53;;;7.00;;
18789;SDS011;9523;42.650;23.386;2024-02-14T11:33:14;10.00;;;7.30;;
18789;SDS011;9523;42.650;23.386;2024-02-14T11:35:43;10.13;;;6.70;;
18789;SDS011;9523;42.650;23.386;2024-02-14T11:38:11;12.17;;;7.57;;
18789;SDS011;9523;42.650;23.386;2024-02-14T11:40:39;10.00;;;7.40;;
18789;SDS011;9523;42.650;23.386;2024-02-14T11:43:10;12.57;;;7.10;;
18789;SDS011;9523;42.650;23.386;2024-02-14T11:45:39;11.30;;;6.50;;
18789;SDS011;9523;42.650;23.386;2024-02-14T11:48:07;9.50;;;6.40;;
18789;SDS011;9523;42.650;23.386;2024-02-14T11:50:37;9.10;;;6.17;;
18789;SDS011;9523;42.650;23.386;2024-02-14T11:53:05;9.20;;;6.73;;
18789;SDS011;9523;42.650;23.386;2024-02-14T11:55:34;8.67;;;6.47;;
18789;SDS011;9523;42.650;23.386;2024-02-14T11:58:03;8.90;;;5.97;;
18789;SDS011;9523;42.650;23.386;2024-02-14T12:00:33;10.23;;;6.37;;
18789;SDS011;9523;42.650;23.386;2024-02-14T12:03:03;8.27;;;6.03;;
18789;SDS011;9523;42.650;23.386;2024-02-14T12:05:33;6.13;;;4.57;;
18789;SDS011;9523;42.650;23.386;2024-02-14T12:08:02;7.77;;;5.47;;
18789;SDS011;9523;42.650;23.386;2024-02-14T12:10:31;8.70;;;6.10;;
18789;SDS011;9523;42.650;23.386;2024-02-14T12:12:58;11.03;;;6.47;;
18789;SDS011;9523;42.650;23.386;2024-02-14T12:15:36;6.30;;;4.77;;
18789;SDS011;9523;42.650;23.386;2024-02-14T12:18:04;7.87;;;5.60;;
18789;SDS011;9523;42.650;23.386;2024-02-14T12:20:41;10.70;;;5.97;;
18789;SDS011;9523;42.650;23.386;2024-02-14T12:23:23;10.10;;;6.40;;
18789;SDS011;9523;42.650;23.386;2024-02-14T12:26:00;11.53;;;5.93;;
18789;SDS011;9523;42.650;23.386;2024-02-14T12:28:29;9.90;;;6.80;;
18789;SDS011;9523;42.650;23.386;2024-02-14T12:30:57;11.60;;;8.27;;
18789;SDS011;9523;42.650;23.386;2024-02-14T12:33:25;10.70;;;6.70;;
18789;SDS011;9523;42.650;23.386;2024-02-14T12:35:53;10.20;;;6.53;;
18789;SDS011;9523;42.650;23.386;2024-02-14T12:38:23;11.33;;;7.27;;
18789;SDS011;9523;42.650;23.386;2024-02-14T12:40:50;9.90;;;6.50;;
18789;SDS011;9523;42.650;23.386;2024-02-14T12:43:19;7.97;;;6.30;;
18789;SDS011;9523;42.650;23.386;2024-02-14T12:45:46;9.57;;;6.33;;
18789;SDS011;9523;42.650;23.386;2024-02-14T12:48:21;8.13;;;5.77;;
18789;SDS011;9523;42.650;23.386;2024-02-14T12:50:51;8.57;;;6.20;;
18789;SDS011;9523;42.650;23.386;2024-02-14T12:53:18;14.77;;;6.43;;
18789;SDS011;9523;42.650;23.386;2024-02-14T12:55:47;11.13;;;7.30;;
18789;SDS011;9523;42.650;23.386;2024-02-14T12:58:14;9.87;;;6.20;;
18789;SDS011;9523;42.650;23.386;2024-02-14T13:00:42;10.20;;;6.40;;
18789;SDS011;9523;42.650;23.386;2024-02-14T13:03:10;8.47;;;6.30;;
18789;SDS011;9523;42.650;23.386;2024-02-14T13:05:37;11.47;;;6.53;;
18789;SDS011;9523;42.650;23.386;2024-02-14T13:08:04;9.43;;;6.30;;
18789;SDS011;9523;42.650;23.386;2024-02-14T13:10:32;10.57;;;6.70;;
18789;SDS011;9523;42.650;23.386;2024-02-14T13:13:00;12.13;;;6.57;;
18789;SDS011;9523;42.650;23.386;2024-02-14T13:15:27;9.70;;;6.17;;
18789;SDS011;9523;42.650;23.386;2024-02-14T13:17:55;9.27;;;6.10;;
18789;SDS011;9523;42.650;23.386;2024-02-14T13:20:24;10.13;;;6.57;;
18789;SDS011;9523;42.650;23.386;2024-02-14T13:22:52;8.70;;;6.00;;
18789;SDS011;9523;42.650;23.386;2024-02-14T13:25:19;9.23;;;6.23;;
18789;SDS011;9523;42.650;23.386;2024-02-14T13:27:46;14.93;;;6.43;;
18789;SDS011;9523;42.650;23.386;2024-02-14T13:30:15;11.10;;;6.00;;
18789;SDS011;9523;42.650;23.386;2024-02-14T13:32:43;10.97;;;6.90;;
18789;SDS011;9523;42.650;23.386;2024-02-14T13:35:11;11.20;;;6.03;;
18789;SDS011;9523;42.650;23.386;2024-02-14T13:37:38;10.10;;;6.43;;
18789;SDS011;9523;42.650;23.386;2024-02-14T13:40:06;10.70;;;6.33;;
18789;SDS011;9523;42.650;23.386;2024-02-14T13:42:35;9.07;;;4.90;;
18789;SDS011;9523;42.650;23.386;2024-02-14T13:45:03;9.27;;;6.20;;
18789;SDS011;9523;42.650;23.386;2024-02-14T13:47:36;7.87;;;5.30;;
18789;SDS011;9523;42.650;23.386;2024-02-14T13:50:05;8.70;;;6.00;;
18789;SDS011;9523;42.650;23.386;2024-02-14T13:52:32;8.93;;;6.07;;
18789;SDS011;9523;42.650;23.386;2024-02-14T13:54:59;10.83;;;6.53;;
18789;SDS011;9523;42.650;23.386;2024-02-14T13:57:27;10.47;;;6.20;;
18789;SDS011;9523;42.650;23.386;2024-02-14T13:59:55;11.07;;;6.20;;
18789;SDS011;9523;42.650;23.386;2024-02-14T14:02:22;7.63;;;4.83;;
18789;SDS011;9523;42.650;23.386;2024-02-14T14:04:51;11.13;;;6.57;;
18789;SDS011;9523;42.650;23.386;2024-02-14T14:07:18;9.03;;;5.53;;
18789;SDS011;9523;42.650;23.386;2024-02-14T14:09:46;9.53;;;5.90;;
18789;SDS011;9523;42.650;23.386;2024-02-14T14:12:13;9.77;;;6.27;;
18789;SDS011;9523;42.650;23.386;2024-02-14T14:14:40;10.13;;;5.97;;
18789;SDS011;9523;42.650;23.386;2024-02-14T14:17:07;7.27;;;5.57;;
18789;SDS011;9523;42.650;23.386;2024-02-14T14:19:34;10.73;;;6.57;;
18789;SDS011;9523;42.650;23.386;2024-02-14T14:22:03;11.10;;;6.50;;
18789;SDS011;9523;42.650;23.386;2024-02-14T14:24:30;7.80;;;5.83;;
18789;SDS011;9523;42.650;23.386;2024-02-14T14:26:57;20.47;;;6.57;;
18789;SDS011;9523;42.650;23.386;2024-02-14T14:29:24;10.50;;;6.13;;
18789;SDS011;9523;42.650;23.386;2024-02-14T14:31:53;13.23;;;6.00;;
18789;SDS011;9523;42.650;23.386;2024-02-14T14:34:20;12.53;;;5.57;;
18789;SDS011;9523;42.650;23.386;2024-02-14T14:36:47;10.20;;;5.90;;
18789;SDS011;9523;42.650;23.386;2024-02-14T14:39:16;9.50;;;5.47;;
18789;SDS011;9523;42.650;23.386;2024-02-14T14:41:44;13.03;;;6.50;;
18789;SDS011;9523;42.650;23.386;2024-02-14T14:44:15;9.53;;;6.30;;